createdAt,value
2023-03-17T00:03:56.490Z,101495.13
2023-03-17T00:08:59.348Z,101500.78
2023-03-17T00:14:02.164Z,101503.09
2023-03-17T00:19:05.165Z,101511.28
2023-03-17T00:24:12.966Z,101506.84
2023-03-17T00:29:17.370Z,101514.75
2023-03-17T00:34:20.423Z,101522.34
2023-03-17T00:39:24.559Z,101528.63
2023-03-17T00:44:30.569Z,101526.84
2023-03-17T00:49:33.341Z,101536.72
2023-03-17T00:54:36.198Z,101541.66
2023-03-17T00:59:41.970Z,101543.75
2023-03-17T01:04:52.874Z,101539.47
2023-03-17T01:10:02.453Z,101540.63
2023-03-17T01:15:06.318Z,101517.41
2023-03-17T01:20:21.973Z,101533.13
2023-03-17T01:25:25.204Z,101533.38
2023-03-17T01:30:32.640Z,101531.13
2023-03-17T01:35:37.143Z,101548.28
2023-03-17T01:40:47.226Z,101559.34
2023-03-17T01:46:26.273Z,101568.50
2023-03-17T01:51:47.407Z,101572.81
2023-03-17T01:56:52.644Z,101569.03
2023-03-17T02:02:02.684Z,101569.31
2023-03-17T02:07:05.790Z,101573.50
2023-03-17T02:12:09.617Z,101567.81
2023-03-17T02:17:12.448Z,101570.97
2023-03-17T02:22:15.928Z,101580.56
2023-03-17T02:27:24.874Z,101588.53
2023-03-17T02:32:29.362Z,101567.84
2023-03-17T02:37:33.868Z,101585.84
2023-03-17T02:42:36.993Z,101583.78
2023-03-17T02:47:40.154Z,101599.13
2023-03-17T02:52:43.067Z,101595.31
2023-03-17T02:57:45.937Z,101611.50
2023-03-17T03:02:48.823Z,101612.72
2023-03-17T03:07:52.632Z,101603.59
2023-03-17T03:12:55.384Z,101609.66
2023-03-17T03:17:58.236Z,101608.31
2023-03-17T03:23:00.979Z,101597.19
2023-03-17T03:28:05.138Z,101597.63
2023-03-17T03:33:08.290Z,101612.78
2023-03-17T03:38:12.614Z,101589.50
2023-03-17T03:43:22.859Z,101588.66
2023-03-17T03:48:26.658Z,101600.28
2023-03-17T03:53:30.172Z,101609.69
2023-03-17T03:58:32.859Z,101612.34
2023-03-17T04:03:39.593Z,101601.56
2023-03-17T04:08:42.431Z,101595.06
2023-03-17T04:13:45.099Z,101595.47
2023-03-17T04:18:48.012Z,101574.97
2023-03-17T04:23:51.047Z,101578.84
2023-03-17T04:28:53.758Z,101578.47
2023-03-17T04:33:59.045Z,101575.38
2023-03-17T04:39:02.327Z,101581.16
2023-03-17T04:44:05.361Z,101583.00
2023-03-17T04:49:08.804Z,101587.47
2023-03-17T04:54:11.590Z,101587.34
2023-03-17T04:59:14.580Z,101585.56
2023-03-17T05:04:30.851Z,101567.91
2023-03-17T05:09:34.183Z,101573.75
2023-03-17T05:14:37.635Z,101563.91
2023-03-17T05:19:40.369Z,101567.56
2023-03-17T05:24:43.342Z,101566.59
2023-03-17T05:29:46.067Z,101557.69
2023-03-17T05:34:49.123Z,101551.94
2023-03-17T05:39:54.073Z,101529.69
2023-03-17T05:44:56.860Z,101504.78
2023-03-17T05:50:01.044Z,101532.22
2023-03-17T05:55:04.238Z,101534.72
2023-03-17T06:00:08.100Z,101537.25
2023-03-17T06:05:10.827Z,101529.72
2023-03-17T06:10:14.048Z,101528.56
2023-03-17T06:15:17.508Z,101526.28
2023-03-17T06:20:20.454Z,101524.84
2023-03-17T06:25:23.244Z,101501.53
2023-03-17T06:30:25.961Z,101499.13
2023-03-17T06:35:29.884Z,101503.91
2023-03-17T06:40:34.453Z,101503.75
2023-03-17T06:45:37.830Z,101492.88
2023-03-17T06:50:40.939Z,101488.53
2023-03-17T06:55:43.896Z,101469.41
2023-03-17T07:00:49.214Z,101466.19
2023-03-17T07:05:52.716Z,101457.00
2023-03-17T07:10:57.674Z,101460.22
2023-03-17T07:16:00.761Z,101455.81
2023-03-17T07:21:03.753Z,101455.38
2023-03-17T07:26:06.791Z,101460.41
2023-03-17T07:31:10.913Z,101453.09
2023-03-17T07:36:13.874Z,101447.31
2023-03-17T07:41:16.711Z,101416.81
2023-03-17T07:46:19.772Z,101428.47
2023-03-17T07:51:23.708Z,101432.19
2023-03-17T07:56:26.452Z,101435.16
2023-03-17T08:01:29.629Z,101421.97
2023-03-17T08:06:32.843Z,101419.41
2023-03-17T08:11:36.435Z,101416.66
2023-03-17T08:16:39.557Z,101400.59
2023-03-17T08:21:42.531Z,101418.47
2023-03-17T08:26:49.399Z,101414.16
2023-03-17T08:31:52.518Z,101417.66
2023-03-17T08:36:55.232Z,101404.34
2023-03-17T08:41:58.355Z,101385.47
2023-03-17T08:47:01.380Z,101404.50
2023-03-17T08:52:04.278Z,101411.34
2023-03-17T08:57:07.058Z,101379.41
2023-03-17T09:02:12.140Z,101406.03
2023-03-17T09:07:15.596Z,101403.91
2023-03-17T09:12:18.283Z,101394.06
2023-03-17T09:17:21.037Z,101383.34
2023-03-17T09:22:23.949Z,101391.19
2023-03-17T09:27:26.903Z,101389.19
2023-03-17T09:32:29.893Z,101381.50
2023-03-17T09:37:34.773Z,101379.97
2023-03-17T09:43:00.209Z,101380.13
2023-03-17T09:48:11.309Z,101373.06
2023-03-17T09:53:35.950Z,101370.03
2023-03-17T09:58:40.243Z,101341.72
2023-03-17T10:03:43.258Z,101362.03
2023-03-17T10:08:54.651Z,101365.91
2023-03-17T10:14:16.329Z,101353.50
2023-03-17T10:19:36.501Z,101350.16
2023-03-17T10:24:43.961Z,101340.63
2023-03-17T10:29:48.489Z,101345.56
2023-03-17T10:34:52.990Z,101350.25
2023-03-17T10:39:57.606Z,101347.50
2023-03-17T10:45:28.125Z,101329.34
2023-03-17T10:50:36.267Z,101327.38
2023-03-17T10:55:38.902Z,101318.59
2023-03-17T11:00:57.953Z,101320.75
2023-03-17T11:06:11.042Z,101311.97
2023-03-17T11:11:31.816Z,101310.50
2023-03-17T11:16:38.209Z,101295.19
2023-03-17T11:22:25.259Z,101310.13
2023-03-17T11:27:35.607Z,101308.34
2023-03-17T11:32:48.168Z,101312.53
2023-03-17T11:38:28.805Z,101298.88
2023-03-17T11:43:50.150Z,101299.16
2023-03-17T11:49:15.212Z,101289.31
2023-03-17T11:54:17.701Z,101282.44
2023-03-17T11:59:30.878Z,101278.81
2023-03-17T12:04:38.285Z,101279.63
2023-03-17T12:09:48.304Z,101273.44
2023-03-17T12:14:52.713Z,101275.53
2023-03-17T12:20:18.591Z,101266.94
2023-03-17T12:25:25.966Z,101287.53
2023-03-17T12:30:45.776Z,101272.34
2023-03-17T12:35:48.618Z,101288.38
2023-03-17T12:41:22.291Z,101291.56
2023-03-17T12:46:53.946Z,101288.22
2023-03-17T12:52:02.257Z,101294.59
2023-03-17T12:57:05.367Z,101293.06
2023-03-17T13:02:18.283Z,101280.31
2023-03-17T13:07:27.315Z,101292.25
2023-03-17T13:12:44.961Z,101301.94
2023-03-17T13:17:48.227Z,101298.84
2023-03-17T13:23:12.231Z,101301.13
2023-03-17T13:28:15.535Z,101298.38
2023-03-17T13:33:26.235Z,101293.72
2023-03-17T13:38:38.092Z,101279.91
2023-03-17T13:44:23.358Z,101294.22
2023-03-17T13:49:29.938Z,101287.94
2023-03-17T13:54:35.318Z,101284.16
2023-03-17T13:59:40.998Z,101279.34
2023-03-17T14:04:54.014Z,101281.09
2023-03-17T14:10:00.090Z,101293.66
2023-03-17T14:15:17.698Z,101291.91
2023-03-17T14:20:23.920Z,101300.56
2023-03-17T14:25:38.656Z,101304.75
2023-03-17T14:30:53.623Z,101302.78
2023-03-17T14:36:01.783Z,101297.16
2023-03-17T14:41:22.985Z,101308.63
2023-03-17T14:46:31.015Z,101283.50
2023-03-17T14:51:36.845Z,101282.22
2023-03-17T14:56:49.987Z,101281.22
2023-03-17T15:02:04.424Z,101286.06
2023-03-17T15:07:08.092Z,101285.72
2023-03-17T15:12:18.934Z,101285.09
2023-03-17T15:17:26.331Z,101261.16
2023-03-17T15:22:37.111Z,101283.03
2023-03-17T15:27:39.893Z,101273.06
2023-03-17T15:32:42.696Z,101274.00
2023-03-17T15:37:45.618Z,101263.53
2023-03-17T15:42:48.614Z,101253.50
2023-03-17T15:47:51.691Z,101257.97
2023-03-17T15:52:56.269Z,101247.88
2023-03-17T15:57:59.631Z,101262.56
2023-03-17T16:03:09.307Z,101252.69
2023-03-17T16:08:14.524Z,101264.31
2023-03-17T16:13:17.265Z,101254.59
2023-03-17T16:18:24.749Z,101264.34
2023-03-17T16:23:31.512Z,101263.19
2023-03-17T16:28:35.645Z,101258.94
2023-03-17T16:33:43.817Z,101250.03
2023-03-17T16:38:47.582Z,101237.41
2023-03-17T16:43:58.466Z,101227.38
2023-03-17T16:49:04.953Z,101230.22
2023-03-17T16:54:08.459Z,101172.06
2023-03-17T16:59:21.189Z,101220.06
2023-03-17T17:04:26.993Z,101227.00
2023-03-17T17:09:29.752Z,101224.38
2023-03-17T17:14:32.827Z,101232.34
2023-03-17T17:19:35.866Z,101227.34
2023-03-17T17:24:38.595Z,101215.47
2023-03-17T17:29:41.400Z,101200.09
2023-03-17T17:34:44.207Z,101204.22
2023-03-17T17:39:47.106Z,101195.59
2023-03-17T17:44:50.180Z,101191.03
2023-03-17T17:49:53.810Z,101193.84
2023-03-17T17:55:03.285Z,101193.00
2023-03-17T18:00:10.810Z,101190.69
2023-03-17T18:05:14.091Z,101186.75
2023-03-17T18:10:27.254Z,101181.19
2023-03-17T18:15:30.193Z,101186.88
2023-03-17T18:20:33.358Z,101179.28
2023-03-17T18:25:37.862Z,101186.78
2023-03-17T18:30:41.097Z,101172.09
2023-03-17T18:35:48.268Z,101181.66
2023-03-17T18:40:51.462Z,101168.59
2023-03-17T18:45:54.254Z,101168.00
2023-03-17T18:50:57.074Z,101172.13
2023-03-17T18:55:59.785Z,101166.56
2023-03-17T19:01:03.108Z,101144.00
2023-03-17T19:06:24.552Z,101166.28
2023-03-17T19:11:27.714Z,101151.63
2023-03-17T19:16:31.192Z,101141.03
2023-03-17T19:21:34.038Z,101132.09
2023-03-17T19:26:37.837Z,101131.81
2023-03-17T19:31:41.734Z,101135.50
2023-03-17T19:36:46.901Z,101130.81
2023-03-17T19:41:53.542Z,101131.84
2023-03-17T19:46:56.237Z,101111.28
2023-03-17T19:51:58.915Z,101122.56
2023-03-17T19:57:01.790Z,101114.38
2023-03-17T20:02:04.589Z,101106.91
2023-03-17T20:07:07.790Z,101100.94
2023-03-17T20:12:10.763Z,101106.50
2023-03-17T20:17:14.906Z,101097.69
2023-03-17T20:22:17.630Z,101086.25
2023-03-17T20:27:20.577Z,101083.47
2023-03-17T20:32:23.321Z,101068.53
2023-03-17T20:37:26.289Z,101038.78
2023-03-17T20:42:29.000Z,101059.75
2023-03-17T20:47:31.821Z,101070.16
2023-03-17T20:52:36.032Z,101047.28
2023-03-17T20:57:38.750Z,101062.66
2023-03-17T21:02:41.613Z,101052.53
2023-03-17T21:07:44.927Z,101065.72
2023-03-17T21:12:48.368Z,101053.84
2023-03-17T21:17:51.062Z,101063.06
2023-03-17T21:22:53.790Z,101047.97
2023-03-17T21:27:56.863Z,101053.22
2023-03-17T21:33:01.281Z,101052.94
2023-03-17T21:38:04.232Z,101042.38
2023-03-17T21:43:06.982Z,101041.50
2023-03-17T21:48:09.780Z,101029.50
2023-03-17T21:53:15.152Z,101029.91
2023-03-17T21:58:18.247Z,101029.75
2023-03-17T22:03:21.073Z,101025.25
2023-03-17T22:08:23.856Z,101021.97
2023-03-17T22:13:26.720Z,101024.91
2023-03-17T22:18:29.448Z,101020.50
2023-03-17T22:23:33.669Z,101008.03
2023-03-17T22:28:36.504Z,101022.22
2023-03-17T22:33:39.561Z,101015.47
2023-03-17T22:38:42.664Z,101018.22
2023-03-17T22:43:45.894Z,101029.63
2023-03-17T22:48:48.904Z,101019.97
2023-03-17T22:53:52.133Z,100997.81
2023-03-17T22:58:55.502Z,101007.63
2023-03-17T23:03:58.317Z,101002.66
2023-03-17T23:09:01.400Z,100997.22
2023-03-17T23:14:04.723Z,101000.16
2023-03-17T23:19:07.490Z,100988.66
2023-03-17T23:24:10.494Z,101003.91
2023-03-17T23:29:13.493Z,100996.09
2023-03-17T23:34:16.336Z,101009.25
2023-03-17T23:39:19.305Z,101005.84
2023-03-17T23:44:23.021Z,101009.91
2023-03-17T23:49:25.838Z,100994.97
2023-03-17T23:54:29.073Z,100993.78
2023-03-17T23:59:31.770Z,100984.25
